createdAt,value
2022-11-30T00:01:19.452Z,6.30
2022-11-30T00:03:46.670Z,6.40
2022-11-30T00:06:16.025Z,6.30
2022-11-30T00:08:42.907Z,6.30
2022-11-30T00:11:17.857Z,6.30
2022-11-30T00:13:45.136Z,6.30
2022-11-30T00:16:11.865Z,6.30
2022-11-30T00:18:38.656Z,6.20
2022-11-30T00:21:10.734Z,6.20
2022-11-30T00:23:39.745Z,6.10
2022-11-30T00:26:09.013Z,6.10
2022-11-30T00:28:37.511Z,6.00
2022-11-30T00:31:06.988Z,6.00
2022-11-30T00:33:35.445Z,5.90
2022-11-30T00:36:08.246Z,5.90
2022-11-30T00:38:35.842Z,5.90
2022-11-30T00:41:03.432Z,5.90
2022-11-30T00:43:30.375Z,5.90
2022-11-30T00:45:57.383Z,5.90
2022-11-30T00:48:24.281Z,5.90
2022-11-30T00:50:51.367Z,5.90
2022-11-30T00:53:19.529Z,5.90
2022-11-30T00:55:46.767Z,5.90
2022-11-30T00:58:13.812Z,5.90
2022-11-30T01:00:40.710Z,5.90
2022-11-30T01:03:07.544Z,5.90
2022-11-30T01:05:34.874Z,6.00
2022-11-30T01:08:03.821Z,6.00
2022-11-30T01:10:30.682Z,6.00
2022-11-30T01:12:57.393Z,6.00
2022-11-30T01:15:24.167Z,6.00
2022-11-30T01:17:50.762Z,6.00
2022-11-30T01:20:17.687Z,6.00
2022-11-30T01:22:44.446Z,6.00
2022-11-30T01:25:11.149Z,6.00
2022-11-30T01:27:38.653Z,6.00
2022-11-30T01:30:05.963Z,6.00
2022-11-30T01:32:32.530Z,6.00
2022-11-30T01:34:59.139Z,6.00
2022-11-30T01:37:25.729Z,6.00
2022-11-30T01:39:52.380Z,6.00
2022-11-30T01:42:20.029Z,6.00
2022-11-30T01:44:57.894Z,6.00
2022-11-30T01:47:36.977Z,6.00
2022-11-30T01:50:09.308Z,5.90
2022-11-30T01:52:39.634Z,5.90
2022-11-30T01:55:21.241Z,5.90
2022-11-30T01:58:03.704Z,5.90
2022-11-30T02:00:30.344Z,5.90
2022-11-30T02:03:06.905Z,5.80
2022-11-30T02:05:36.033Z,5.80
2022-11-30T02:08:03.104Z,5.80
2022-11-30T02:10:34.245Z,5.80
2022-11-30T02:13:15.999Z,5.80
2022-11-30T02:16:21.243Z,5.80
2022-11-30T02:19:09.171Z,5.80
2022-11-30T02:22:02.661Z,5.90
2022-11-30T02:25:19.685Z,5.90
2022-11-30T02:27:58.062Z,5.80
2022-11-30T02:30:25.217Z,5.80
2022-11-30T02:32:56.105Z,5.80
2022-11-30T02:35:27.277Z,5.80
2022-11-30T02:37:54.703Z,5.80
2022-11-30T02:40:21.832Z,5.80
2022-11-30T02:42:51.870Z,5.80
2022-11-30T02:45:47.700Z,5.80
2022-11-30T02:48:17.140Z,5.80
2022-11-30T02:50:51.413Z,5.80
2022-11-30T02:53:18.943Z,5.70
2022-11-30T02:55:45.661Z,5.70
2022-11-30T02:58:14.090Z,5.70
2022-11-30T03:00:40.830Z,5.70
2022-11-30T03:03:07.579Z,5.70
2022-11-30T03:05:34.561Z,5.70
2022-11-30T03:08:01.167Z,5.70
2022-11-30T03:10:27.857Z,5.70
2022-11-30T03:12:58.753Z,5.70
2022-11-30T03:15:25.446Z,5.70
2022-11-30T03:17:52.092Z,5.70
2022-11-30T03:20:18.798Z,5.80
2022-11-30T03:22:45.409Z,5.80
2022-11-30T03:25:12.007Z,5.80
2022-11-30T03:27:38.588Z,5.80
2022-11-30T03:30:05.990Z,5.80
2022-11-30T03:32:32.601Z,5.80
2022-11-30T03:34:59.229Z,5.80
2022-11-30T03:37:25.824Z,5.70
2022-11-30T03:39:57.727Z,5.70
2022-11-30T03:42:24.867Z,5.70
2022-11-30T03:44:51.455Z,5.70
2022-11-30T03:47:18.034Z,5.70
2022-11-30T03:49:44.634Z,5.80
2022-11-30T03:52:11.219Z,5.80
2022-11-30T03:54:37.773Z,5.80
2022-11-30T03:57:04.384Z,5.80
2022-11-30T03:59:31.032Z,5.80
2022-11-30T04:01:57.760Z,5.80
2022-11-30T04:04:24.354Z,5.80
2022-11-30T04:06:51.045Z,5.80
2022-11-30T04:09:17.643Z,5.80
2022-11-30T04:11:44.249Z,5.80
2022-11-30T04:14:11.117Z,5.90
2022-11-30T04:16:37.814Z,5.90
2022-11-30T04:19:04.467Z,5.90
2022-11-30T04:21:31.150Z,5.90
2022-11-30T04:23:57.731Z,5.90
2022-11-30T04:26:24.311Z,5.90
2022-11-30T04:28:50.973Z,5.90
2022-11-30T04:31:17.620Z,5.90
2022-11-30T04:33:44.263Z,5.90
2022-11-30T04:36:20.154Z,5.90
2022-11-30T04:38:47.694Z,5.90
2022-11-30T04:41:14.373Z,5.90
2022-11-30T04:43:41.015Z,5.90
2022-11-30T04:46:07.913Z,5.90
2022-11-30T04:48:35.126Z,5.90
2022-11-30T04:51:03.406Z,5.90
2022-11-30T04:53:30.060Z,5.90
2022-11-30T04:55:56.651Z,5.90
2022-11-30T04:58:23.377Z,5.90
2022-11-30T05:00:52.964Z,5.90
2022-11-30T05:03:19.601Z,5.80
2022-11-30T05:05:46.166Z,5.80
2022-11-30T05:08:12.767Z,5.80
2022-11-30T05:10:39.364Z,5.80
2022-11-30T05:13:05.927Z,5.70
2022-11-30T05:15:33.001Z,5.70
2022-11-30T05:18:01.016Z,5.70
2022-11-30T05:20:28.835Z,5.70
2022-11-30T05:22:55.574Z,5.70
2022-11-30T05:25:22.237Z,5.70
2022-11-30T05:27:48.826Z,5.70
2022-11-30T05:30:15.662Z,5.70
2022-11-30T05:32:42.237Z,5.70
2022-11-30T05:35:09.329Z,5.70
2022-11-30T05:37:36.019Z,5.70
2022-11-30T05:40:02.713Z,5.70
2022-11-30T05:42:29.310Z,5.70
2022-11-30T05:44:55.961Z,5.70
2022-11-30T05:47:22.679Z,5.70
2022-11-30T05:49:49.259Z,5.70
2022-11-30T05:52:15.975Z,5.70
2022-11-30T05:54:42.548Z,5.70
2022-11-30T05:57:09.152Z,5.70
2022-11-30T05:59:35.734Z,5.70
2022-11-30T06:02:02.442Z,5.70
2022-11-30T06:04:29.191Z,5.70
2022-11-30T06:06:56.004Z,5.70
2022-11-30T06:09:23.259Z,5.70
2022-11-30T06:11:50.227Z,5.60
2022-11-30T06:14:17.085Z,5.60
2022-11-30T06:16:44.110Z,5.60
2022-11-30T06:19:10.865Z,5.60
2022-11-30T06:21:37.454Z,5.60
2022-11-30T06:24:04.308Z,5.60
2022-11-30T06:26:30.953Z,5.60
2022-11-30T06:28:57.634Z,5.60
2022-11-30T06:31:24.263Z,5.50
2022-11-30T06:33:51.303Z,5.60
2022-11-30T06:36:22.802Z,5.60
2022-11-30T06:38:49.810Z,5.60
2022-11-30T06:41:16.756Z,5.60
2022-11-30T06:43:43.346Z,5.70
2022-11-30T06:46:10.094Z,5.70
2022-11-30T06:48:36.831Z,5.70
2022-11-30T06:51:08.322Z,5.70
2022-11-30T06:53:35.402Z,5.70
2022-11-30T06:56:11.899Z,5.70
2022-11-30T06:58:39.743Z,5.70
2022-11-30T07:01:12.795Z,5.70
2022-11-30T07:03:40.339Z,5.60
2022-11-30T07:06:12.511Z,5.60
2022-11-30T07:08:39.474Z,5.60
2022-11-30T07:11:07.374Z,5.60
2022-11-30T07:13:34.292Z,5.60
2022-11-30T07:16:05.350Z,5.50
2022-11-30T07:18:32.788Z,5.50
2022-11-30T07:21:03.441Z,5.50
2022-11-30T07:23:55.588Z,5.50
2022-11-30T07:26:23.540Z,5.50
2022-11-30T07:28:54.585Z,5.50
2022-11-30T07:31:30.439Z,5.50
2022-11-30T07:33:58.581Z,5.40
2022-11-30T07:36:26.595Z,5.40
2022-11-30T07:38:53.253Z,5.40
2022-11-30T07:41:19.983Z,5.50
2022-11-30T07:43:46.576Z,5.40
2022-11-30T07:46:15.010Z,5.40
2022-11-30T07:48:42.567Z,5.40
2022-11-30T07:51:13.541Z,5.30
2022-11-30T07:53:40.526Z,5.30
2022-11-30T07:56:09.937Z,5.30
2022-11-30T07:58:37.514Z,5.30
2022-11-30T08:01:06.664Z,5.20
2022-11-30T08:03:36.978Z,5.20
2022-11-30T08:06:09.278Z,5.20
2022-11-30T08:08:38.938Z,5.20
2022-11-30T08:11:07.072Z,5.30
2022-11-30T08:13:33.714Z,5.30
2022-11-30T08:16:05.047Z,5.30
2022-11-30T08:18:31.627Z,5.30
2022-11-30T08:21:00.224Z,5.30
2022-11-30T08:23:29.590Z,5.40
2022-11-30T08:25:56.242Z,5.40
2022-11-30T08:28:22.812Z,5.50
2022-11-30T08:30:49.450Z,5.50
2022-11-30T08:33:16.077Z,5.50
2022-11-30T08:35:42.981Z,5.50
2022-11-30T08:38:09.546Z,5.50
2022-11-30T08:40:36.185Z,5.50
2022-11-30T08:43:02.769Z,5.50
2022-11-30T08:45:29.354Z,5.50
2022-11-30T08:47:55.966Z,5.40
2022-11-30T08:50:22.844Z,5.40
2022-11-30T08:52:49.558Z,5.40
2022-11-30T08:55:16.308Z,5.40
2022-11-30T08:57:42.990Z,5.40
2022-11-30T09:00:10.335Z,5.40
2022-11-30T09:02:37.479Z,5.40
2022-11-30T09:05:04.528Z,5.40
2022-11-30T09:07:31.174Z,5.40
2022-11-30T09:09:57.822Z,5.40
2022-11-30T09:12:24.418Z,5.40
2022-11-30T09:14:57.370Z,5.40
2022-11-30T09:17:24.872Z,5.30
2022-11-30T09:19:51.537Z,5.30
2022-11-30T09:22:18.291Z,5.20
2022-11-30T09:24:45.239Z,5.20
2022-11-30T09:27:12.485Z,5.20
2022-11-30T09:29:39.113Z,5.20
2022-11-30T09:32:06.634Z,5.20
2022-11-30T09:34:33.239Z,5.20
2022-11-30T09:36:59.826Z,5.20
2022-11-30T09:39:26.465Z,5.20
2022-11-30T09:42:11.839Z,5.20
2022-11-30T09:45:29.900Z,5.20
2022-11-30T09:48:07.688Z,5.20
2022-11-30T09:50:40.882Z,5.20
2022-11-30T09:53:29.767Z,5.10
2022-11-30T09:55:58.503Z,5.10
2022-11-30T09:58:44.734Z,5.10
2022-11-30T10:01:17.901Z,5.10
2022-11-30T10:03:45.099Z,5.20
2022-11-30T10:06:26.228Z,5.20
2022-11-30T10:09:14.978Z,5.20
2022-11-30T10:12:00.067Z,5.10
2022-11-30T10:15:01.720Z,5.10
2022-11-30T10:17:31.277Z,5.10
2022-11-30T10:20:19.130Z,5.10
2022-11-30T10:23:13.334Z,5.20
2022-11-30T10:25:51.836Z,5.20
2022-11-30T10:28:47.863Z,5.10
2022-11-30T10:31:16.086Z,5.20
2022-11-30T10:33:51.473Z,5.10
2022-11-30T10:36:33.141Z,5.20
2022-11-30T10:39:04.561Z,5.10
2022-11-30T10:41:33.870Z,5.10
2022-11-30T10:44:12.285Z,5.10
2022-11-30T10:46:44.681Z,5.10
2022-11-30T10:49:18.674Z,5.10
2022-11-30T10:51:50.107Z,5.10
2022-11-30T10:54:19.653Z,5.10
2022-11-30T10:56:47.073Z,5.00
2022-11-30T10:59:18.496Z,5.10
2022-11-30T11:01:45.233Z,5.10
2022-11-30T11:04:19.233Z,5.00
2022-11-30T11:06:55.060Z,5.10
2022-11-30T11:09:46.705Z,5.10
2022-11-30T11:12:27.658Z,5.10
2022-11-30T11:15:26.809Z,5.10
2022-11-30T11:18:11.486Z,5.10
2022-11-30T11:20:42.450Z,5.10
2022-11-30T11:23:27.495Z,5.20
2022-11-30T11:25:54.315Z,5.20
2022-11-30T11:28:24.276Z,5.10
2022-11-30T11:30:55.932Z,5.20
2022-11-30T11:33:29.688Z,5.10
2022-11-30T11:36:25.141Z,5.10
2022-11-30T11:38:51.908Z,5.10
2022-11-30T11:41:25.108Z,5.00
2022-11-30T11:44:10.028Z,5.00
2022-11-30T11:46:52.218Z,5.00
2022-11-30T11:49:23.061Z,5.00
2022-11-30T11:52:00.846Z,5.10
2022-11-30T11:54:34.301Z,5.00
2022-11-30T11:57:02.061Z,5.00
2022-11-30T11:59:37.677Z,5.10
2022-11-30T12:02:32.353Z,5.10
2022-11-30T12:05:17.623Z,5.10
2022-11-30T12:08:03.598Z,5.10
2022-11-30T12:10:52.817Z,5.10
2022-11-30T12:13:29.269Z,5.10
2022-11-30T12:16:15.018Z,5.00
2022-11-30T12:18:59.738Z,5.10
2022-11-30T12:21:45.484Z,5.10
2022-11-30T12:24:21.605Z,5.10
2022-11-30T12:27:07.458Z,5.10
2022-11-30T12:29:48.112Z,5.20
2022-11-30T12:32:28.694Z,5.00
2022-11-30T12:35:12.417Z,5.00
2022-11-30T12:37:54.188Z,5.00
2022-11-30T12:40:41.648Z,5.00
2022-11-30T12:43:20.079Z,5.00
2022-11-30T12:45:48.370Z,5.00
2022-11-30T12:48:39.029Z,5.00
2022-11-30T12:51:26.392Z,5.00
2022-11-30T12:54:32.500Z,5.00
2022-11-30T12:57:19.722Z,5.00
2022-11-30T13:00:09.915Z,5.00
2022-11-30T13:02:44.607Z,5.00
2022-11-30T13:05:22.796Z,4.90
2022-11-30T13:08:04.658Z,4.90
2022-11-30T13:10:42.879Z,4.90
2022-11-30T13:13:25.463Z,4.90
2022-11-30T13:15:52.657Z,4.90
2022-11-30T13:18:21.602Z,4.90
2022-11-30T13:21:06.797Z,4.90
2022-11-30T13:23:38.682Z,4.90
2022-11-30T13:26:21.928Z,5.00
2022-11-30T13:29:15.721Z,4.90
2022-11-30T13:32:34.002Z,4.90
2022-11-30T13:35:29.331Z,4.90
2022-11-30T13:38:36.698Z,4.90
2022-11-30T13:41:07.234Z,4.90
2022-11-30T13:43:47.891Z,4.90
2022-11-30T13:46:19.532Z,4.90
2022-11-30T13:48:47.034Z,4.90
2022-11-30T13:51:38.907Z,4.90
2022-11-30T13:54:39.345Z,4.90
2022-11-30T13:57:18.946Z,4.90
2022-11-30T13:59:47.078Z,4.90
2022-11-30T14:05:39.814Z,4.90
2022-11-30T14:08:06.450Z,4.90
2022-11-30T14:10:35.657Z,4.90
2022-11-30T14:13:11.221Z,4.90
2022-11-30T14:15:43.300Z,5.00
2022-11-30T14:18:09.926Z,5.00
2022-11-30T14:20:54.024Z,5.00
2022-11-30T14:23:57.548Z,5.00
2022-11-30T14:26:29.391Z,5.00
2022-11-30T14:29:08.275Z,4.90
2022-11-30T14:31:41.281Z,5.00
2022-11-30T14:34:29.567Z,5.00
2022-11-30T14:37:02.538Z,5.00
2022-11-30T14:39:33.967Z,5.10
2022-11-30T14:42:01.725Z,5.00
2022-11-30T14:44:28.473Z,5.00
2022-11-30T14:46:55.211Z,5.00
2022-11-30T14:49:23.915Z,5.00
2022-11-30T14:52:00.638Z,5.00
2022-11-30T14:54:45.007Z,5.00
2022-11-30T14:57:22.223Z,5.00
2022-11-30T14:59:54.845Z,5.00
2022-11-30T15:02:37.289Z,5.00
2022-11-30T15:05:07.141Z,5.00
2022-11-30T15:07:35.318Z,5.00
2022-11-30T15:10:06.651Z,5.00
2022-11-30T15:12:34.814Z,4.90
2022-11-30T15:15:21.655Z,4.90
2022-11-30T15:17:54.468Z,4.90
2022-11-30T15:20:28.978Z,4.90
2022-11-30T15:23:00.125Z,4.90
2022-11-30T15:25:39.944Z,4.90
2022-11-30T15:28:07.352Z,4.90
2022-11-30T15:30:38.744Z,4.90
2022-11-30T15:33:06.781Z,4.80
2022-11-30T15:35:50.338Z,4.80
2022-11-30T15:38:23.945Z,4.80
2022-11-30T15:40:54.522Z,4.70
2022-11-30T15:43:24.423Z,4.70
2022-11-30T15:45:56.760Z,4.70
2022-11-30T15:48:32.116Z,4.70
2022-11-30T15:51:00.236Z,4.70
2022-11-30T15:53:30.427Z,4.70
2022-11-30T15:56:06.417Z,4.70
2022-11-30T15:58:45.255Z,4.70
2022-11-30T16:01:22.412Z,4.70
2022-11-30T16:03:54.946Z,4.60
2022-11-30T16:06:23.731Z,4.60
2022-11-30T16:08:50.931Z,4.60
2022-11-30T16:11:19.584Z,4.60
2022-11-30T16:13:47.445Z,4.60
2022-11-30T16:16:19.749Z,4.60
2022-11-30T16:18:46.658Z,4.50
2022-11-30T16:21:16.485Z,4.50
2022-11-30T16:23:43.309Z,4.50
2022-11-30T16:26:43.132Z,4.50
2022-11-30T16:29:02.551Z,4.50
2022-11-30T16:31:29.377Z,4.60
2022-11-30T16:33:56.037Z,4.50
2022-11-30T16:36:22.762Z,4.50
2022-11-30T16:38:50.932Z,4.50
2022-11-30T16:41:20.865Z,4.50
2022-11-30T16:43:49.339Z,4.50
2022-11-30T16:46:22.117Z,4.40
2022-11-30T16:48:49.359Z,4.40
2022-11-30T16:51:27.458Z,4.40
2022-11-30T16:53:54.502Z,4.40
2022-11-30T16:56:21.597Z,4.40
2022-11-30T16:58:48.519Z,4.40
2022-11-30T17:01:38.048Z,4.40
2022-11-30T17:04:18.040Z,4.40
2022-11-30T17:06:48.283Z,4.50
2022-11-30T17:09:17.918Z,4.50
2022-11-30T17:11:46.789Z,4.50
2022-11-30T17:14:14.558Z,4.50
2022-11-30T17:16:41.517Z,4.50
2022-11-30T17:19:08.910Z,4.40
2022-11-30T17:21:37.058Z,4.40
2022-11-30T17:24:05.334Z,4.40
2022-11-30T17:26:32.147Z,4.40
2022-11-30T17:28:58.834Z,4.40
2022-11-30T17:31:25.594Z,4.40
2022-11-30T17:33:52.234Z,4.40
2022-11-30T17:36:18.942Z,4.40
2022-11-30T17:38:46.141Z,4.40
2022-11-30T17:41:18.842Z,4.50
2022-11-30T17:43:46.853Z,4.40
2022-11-30T17:46:16.100Z,4.40
2022-11-30T17:48:43.688Z,4.40
2022-11-30T17:51:11.181Z,4.50
2022-11-30T17:53:42.047Z,4.40
2022-11-30T17:56:14.171Z,4.40
2022-11-30T17:58:44.037Z,4.40
2022-11-30T18:01:22.654Z,4.40
2022-11-30T18:03:51.774Z,4.40
2022-11-30T18:06:19.313Z,4.40
2022-11-30T18:08:46.334Z,4.40
2022-11-30T18:11:21.349Z,4.40
2022-11-30T18:13:51.450Z,4.40
2022-11-30T18:16:27.410Z,4.40
2022-11-30T18:18:56.506Z,4.50
2022-11-30T18:21:25.141Z,4.60
2022-11-30T18:23:53.130Z,4.50
2022-11-30T18:26:22.051Z,4.50
2022-11-30T18:28:56.541Z,4.50
2022-11-30T18:31:23.757Z,4.50
2022-11-30T18:33:55.823Z,4.50
2022-11-30T18:36:22.740Z,4.50
2022-11-30T18:38:49.503Z,4.50
2022-11-30T18:41:16.153Z,4.50
2022-11-30T18:43:42.836Z,4.50
2022-11-30T18:46:11.564Z,4.50
2022-11-30T18:48:39.231Z,4.50
2022-11-30T18:51:14.114Z,4.50
2022-11-30T18:53:41.455Z,4.40
2022-11-30T18:56:17.038Z,4.40
2022-11-30T18:58:44.962Z,4.40
2022-11-30T19:01:18.610Z,4.40
2022-11-30T19:03:53.446Z,4.40
2022-11-30T19:06:20.643Z,4.40
2022-11-30T19:08:48.132Z,4.40
2022-11-30T19:11:16.435Z,4.40
2022-11-30T19:13:43.876Z,4.40
2022-11-30T19:16:13.196Z,4.40
2022-11-30T19:18:40.214Z,4.40
2022-11-30T19:21:12.992Z,4.40
2022-11-30T19:23:40.141Z,4.40
2022-11-30T19:26:08.151Z,4.40
2022-11-30T19:28:36.805Z,4.40
2022-11-30T19:31:11.764Z,4.50
2022-11-30T19:33:40.579Z,4.40
2022-11-30T19:36:10.429Z,4.40
2022-11-30T19:38:37.138Z,4.40
2022-11-30T19:41:08.422Z,4.40
2022-11-30T19:43:35.949Z,4.40
2022-11-30T19:46:07.022Z,4.30
2022-11-30T19:48:34.444Z,4.40
2022-11-30T19:51:12.115Z,4.40
2022-11-30T19:53:43.175Z,4.30
2022-11-30T19:56:17.344Z,4.30
2022-11-30T19:58:45.320Z,4.30
2022-11-30T20:01:20.107Z,4.30
2022-11-30T20:03:46.770Z,4.30
2022-11-30T20:06:13.526Z,4.40
2022-11-30T20:08:41.080Z,4.30
2022-11-30T20:11:15.854Z,4.30
2022-11-30T20:13:44.035Z,4.30
2022-11-30T20:16:13.386Z,4.30
2022-11-30T20:18:45.806Z,4.30
2022-11-30T20:21:19.397Z,4.30
2022-11-30T20:23:49.225Z,4.30
2022-11-30T20:26:17.127Z,4.30
2022-11-30T20:28:44.823Z,4.30
2022-11-30T20:31:13.115Z,4.50
2022-11-30T20:33:39.784Z,4.40
2022-11-30T20:36:08.888Z,4.40
2022-11-30T20:38:35.780Z,4.50
2022-11-30T20:41:02.668Z,4.50
2022-11-30T20:43:29.814Z,4.50
2022-11-30T20:45:56.682Z,4.50
2022-11-30T20:48:23.411Z,4.50
2022-11-30T20:51:14.013Z,4.50
2022-11-30T20:53:36.821Z,4.50
2022-11-30T20:56:03.711Z,4.50
2022-11-30T20:58:30.894Z,4.50
2022-11-30T21:00:59.402Z,4.60
2022-11-30T21:03:26.586Z,4.60
2022-11-30T21:05:53.281Z,4.60
2022-11-30T21:08:19.941Z,4.60
2022-11-30T21:10:46.620Z,4.60
2022-11-30T21:13:13.430Z,4.50
2022-11-30T21:15:40.206Z,4.50
2022-11-30T21:18:07.185Z,4.50
2022-11-30T21:20:33.840Z,4.50
2022-11-30T21:23:00.480Z,4.50
2022-11-30T21:25:27.273Z,4.40
2022-11-30T21:27:53.946Z,4.50
2022-11-30T21:30:20.646Z,4.40
2022-11-30T21:32:47.278Z,4.40
2022-11-30T21:35:13.951Z,4.40
2022-11-30T21:37:40.679Z,4.40
2022-11-30T21:40:08.170Z,4.40
2022-11-30T21:42:34.829Z,4.40
2022-11-30T21:45:01.458Z,4.40
2022-11-30T21:47:31.855Z,4.40
2022-11-30T21:49:59.632Z,4.40
2022-11-30T21:52:26.567Z,4.40
2022-11-30T21:54:53.849Z,4.40
2022-11-30T21:57:21.853Z,4.40
2022-11-30T21:59:48.782Z,4.40
2022-11-30T22:02:15.624Z,4.30
2022-11-30T22:04:42.513Z,4.30
2022-11-30T22:07:12.492Z,4.30
2022-11-30T22:09:39.308Z,4.30
2022-11-30T22:12:06.128Z,4.30
2022-11-30T22:14:33.052Z,4.30
2022-11-30T22:16:59.725Z,4.30
2022-11-30T22:19:26.481Z,4.30
2022-11-30T22:21:53.112Z,4.30
2022-11-30T22:24:19.813Z,4.40
2022-11-30T22:26:46.595Z,4.50
2022-11-30T22:29:21.080Z,4.40
2022-11-30T22:31:49.987Z,4.40
2022-11-30T22:34:17.118Z,4.50
2022-11-30T22:36:45.068Z,4.50
2022-11-30T22:39:17.372Z,4.50
2022-11-30T22:41:45.411Z,4.50
2022-11-30T22:44:13.760Z,4.50
2022-11-30T22:46:40.847Z,4.50
2022-11-30T22:49:09.498Z,4.60
2022-11-30T22:51:38.070Z,4.60
2022-11-30T22:54:06.246Z,4.70
2022-11-30T22:56:38.340Z,4.60
2022-11-30T22:59:06.243Z,4.60
2022-11-30T23:01:39.101Z,4.60
2022-11-30T23:04:11.727Z,4.60
2022-11-30T23:06:40.333Z,4.60
2022-11-30T23:09:11.545Z,4.60
2022-11-30T23:11:38.715Z,4.60
2022-11-30T23:14:06.131Z,4.60
2022-11-30T23:16:32.865Z,4.50
2022-11-30T23:19:00.499Z,4.50
2022-11-30T23:21:38.921Z,4.50
2022-11-30T23:24:11.003Z,4.50
2022-11-30T23:26:38.825Z,4.50
2022-11-30T23:29:08.231Z,4.50
2022-11-30T23:31:37.548Z,4.40
2022-11-30T23:34:07.234Z,4.40
2022-11-30T23:36:34.927Z,4.40
2022-11-30T23:39:05.319Z,4.50
2022-11-30T23:41:32.065Z,4.40
2022-11-30T23:43:58.803Z,4.40
2022-11-30T23:46:25.589Z,4.30
2022-11-30T23:48:52.562Z,4.30
2022-11-30T23:51:19.503Z,4.30
2022-11-30T23:53:46.239Z,4.30
2022-11-30T23:56:15.145Z,4.30
2022-11-30T23:58:42.427Z,4.30
